Time;durP1;ratioP1;P1;durP2;ratioP2;P2;SDS_P1;SDS_P2;PMS_P1;PMS_P2;Temp;Humidity;BMP_temperature;BMP_pressure;BME280_temperature;BME280_humidity;BME280_pressure;Samples;Min_cycle;Max_cycle;Signal;HPM_P1;HPM_P2
2021/01/09 00:00:35;;;;;;;34.13;31.87;;;2.40;1.00;;;;;;5005974;28;20183;-70
2021/01/09 00:03:00;;;;;;;32.67;29.90;;;2.30;1.00;;;;;;5005902;28;20841;-70
2021/01/09 00:05:26;;;;;;;28.37;26.57;;;2.20;1.00;;;;;;5005584;28;20570;-70
2021/01/09 00:07:52;;;;;;;31.57;29.37;;;2.30;1.00;;;;;;4998838;28;20259;-70
2021/01/09 00:10:17;;;;;;;25.70;23.80;;;2.30;1.00;;;;;;4995855;28;20223;-70
2021/01/09 00:12:43;;;;;;;23.43;21.70;;;2.20;1.00;;;;;;4996482;28;20168;-71
2021/01/09 00:15:10;;;;;;;28.67;26.07;;;2.30;1.00;;;;;;4996907;28;20179;-70
2021/01/09 00:17:37;;;;;;;26.80;24.80;;;2.30;1.00;;;;;;4995443;28;20218;-70
2021/01/09 00:20:09;;;;;;;29.50;27.50;;;2.30;1.00;;;;;;4997137;28;20661;-71
2021/01/09 00:22:35;;;;;;;29.08;27.17;;;2.40;1.00;;;;;;4996828;28;20271;-70
2021/01/09 00:25:01;;;;;;;28.70;26.70;;;2.50;1.00;;;;;;4996847;28;20278;-71
2021/01/09 00:27:27;;;;;;;28.30;26.38;;;2.40;1.00;;;;;;4995116;28;20235;-71
2021/01/09 00:29:53;;;;;;;28.30;26.40;;;2.40;1.00;;;;;;4996754;28;20705;-71
2021/01/09 00:32:18;;;;;;;29.97;28.10;;;2.50;1.00;;;;;;4996830;28;20175;-71
2021/01/09 00:34:44;;;;;;;33.83;31.73;;;2.50;1.00;;;;;;4996676;28;20179;-70
2021/01/09 00:37:09;;;;;;;31.70;29.37;;;2.50;1.00;;;;;;4996040;28;20657;-71
2021/01/09 00:39:35;;;;;;;34.47;32.37;;;2.50;1.00;;;;;;4996209;28;20203;-71
2021/01/09 00:42:01;;;;;;;31.03;29.17;;;2.60;1.00;;;;;;4996325;28;20218;-71
2021/01/09 00:44:27;;;;;;;31.93;30.13;;;2.60;1.00;;;;;;4996504;28;20175;-71
2021/01/09 00:46:57;;;;;;;30.05;27.80;;;2.60;1.00;;;;;;4995681;28;20458;-71
2021/01/09 00:49:24;;;;;;;27.13;25.27;;;2.60;1.00;;;;;;4996462;28;20195;-71
2021/01/09 00:51:49;;;;;;;26.95;24.70;;;2.60;1.00;;;;;;4995733;28;20179;-71
2021/01/09 00:54:15;;;;;;;25.97;23.97;;;2.60;1.00;;;;;;4994764;28;20517;-70
2021/01/09 00:56:40;;;;;;;24.40;22.50;;;2.60;1.00;;;;;;4995940;28;20247;-71
2021/01/09 00:59:06;;;;;;;27.43;25.50;;;2.60;1.00;;;;;;4996199;28;20207;-70
2021/01/09 01:01:32;;;;;;;30.42;28.23;;;2.70;1.00;;;;;;4996279;28;20649;-71
2021/01/09 01:03:58;;;;;;;30.40;28.57;;;2.70;1.00;;;;;;4995894;28;20206;-70
2021/01/09 01:06:25;;;;;;;38.10;35.70;;;2.70;1.00;;;;;;4995809;28;20517;-70
2021/01/09 01:08:51;;;;;;;42.55;40.33;;;2.70;1.00;;;;;;4995672;28;20450;-71
2021/01/09 01:11:28;;;;;;;39.95;37.92;;;2.70;1.00;;;;;;4995807;28;20176;-71
2021/01/09 01:13:54;;;;;;;40.30;37.70;;;2.70;1.00;;;;;;4995926;28;20167;-71
2021/01/09 01:16:21;;;;;;;33.10;30.95;;;2.70;1.00;;;;;;4995494;28;20172;-71
2021/01/09 01:18:47;;;;;;;29.02;27.23;;;2.70;1.00;;;;;;4995501;28;20200;-71
2021/01/09 01:21:12;;;;;;;30.63;28.67;;;2.70;1.00;;;;;;4994113;28;20214;-71
2021/01/09 01:23:38;;;;;;;35.20;33.20;;;2.70;1.00;;;;;;4993578;28;20614;-71
2021/01/09 01:26:04;;;;;;;36.53;34.10;;;2.70;1.00;;;;;;4995114;28;20258;-71
2021/01/09 01:28:30;;;;;;;29.47;27.57;;;2.80;1.00;;;;;;4994366;28;20278;-71
2021/01/09 01:30:55;;;;;;;31.23;29.52;;;2.70;1.00;;;;;;4994521;28;20226;-71
2021/01/09 01:33:21;;;;;;;28.43;26.50;;;2.70;1.00;;;;;;4995127;28;20184;-71
2021/01/09 01:35:50;;;;;;;27.03;25.30;;;2.70;1.00;;;;;;4994881;28;20655;-70
2021/01/09 01:38:15;;;;;;;29.08;27.33;;;2.60;1.00;;;;;;4995176;28;20222;-71
2021/01/09 01:40:41;;;;;;;28.33;26.53;;;2.60;1.00;;;;;;4994127;28;20207;-71
2021/01/09 01:43:16;;;;;;;26.17;24.40;;;2.60;1.00;;;;;;4995423;28;20283;-70
2021/01/09 01:45:42;;;;;;;31.55;29.75;;;2.60;1.00;;;;;;4994895;28;20191;-71
2021/01/09 01:48:09;;;;;;;32.08;30.02;;;2.60;1.00;;;;;;4994895;28;20217;-70
2021/01/09 01:50:37;;;;;;;32.30;30.35;;;2.60;1.00;;;;;;4995144;28;20172;-71
2021/01/09 01:53:05;;;;;;;25.63;23.88;;;2.50;1.00;;;;;;4995091;28;20168;-70
2021/01/09 01:55:31;;;;;;;34.08;31.98;;;2.50;1.00;;;;;;4994969;28;20172;-71
2021/01/09 01:57:57;;;;;;;34.33;32.42;;;2.40;1.00;;;;;;4993726;28;20204;-71
2021/01/09 02:00:27;;;;;;;35.77;33.87;;;2.40;1.00;;;;;;4994628;28;20184;-71
2021/01/09 02:02:54;;;;;;;33.55;31.63;;;2.40;1.00;;;;;;4994832;28;20417;-71
2021/01/09 02:05:24;;;;;;;30.58;28.48;;;2.40;1.00;;;;;;4994847;28;20639;-71
2021/01/09 02:07:55;;;;;;;32.15;30.17;;;2.40;1.00;;;;;;4994318;28;20218;-71
2021/01/09 02:10:23;;;;;;;32.15;30.15;;;2.30;1.00;;;;;;4995339;28;20207;-70
2021/01/09 02:12:59;;;;;;;32.05;30.05;;;2.30;1.00;;;;;;4995131;28;20168;-71
2021/01/09 02:15:25;;;;;;;29.98;28.08;;;2.20;1.00;;;;;;4994662;28;20226;-71
2021/01/09 02:17:51;;;;;;;35.37;33.23;;;2.20;1.00;;;;;;4993089;28;20195;-70
2021/01/09 02:20:18;;;;;;;35.00;33.10;;;2.20;1.00;;;;;;4994676;28;20889;-70
2021/01/09 02:22:44;;;;;;;26.63;24.83;;;2.20;1.20;;;;;;4994813;28;20214;-70
2021/01/09 02:25:11;;;;;;;26.50;24.40;;;2.20;2.30;;;;;;4994791;28;20576;-71
2021/01/09 02:27:37;;;;;;;30.50;28.40;;;2.20;3.10;;;;;;4994018;28;20172;-70
2021/01/09 02:30:13;;;;;;;29.23;26.80;;;2.30;3.70;;;;;;4994408;28;20183;-71
2021/01/09 02:33:02;;;;;;;37.83;35.70;;;2.30;3.90;;;;;;4994365;28;20225;-71
2021/01/09 02:35:30;;;;;;;39.45;37.45;;;2.30;3.80;;;;;;4994766;28;20172;-71
2021/01/09 02:37:56;;;;;;;34.47;32.15;;;2.30;3.60;;;;;;4994451;28;20199;-71
2021/01/09 02:40:22;;;;;;;29.40;27.60;;;2.30;3.50;;;;;;4994245;28;20282;-70
2021/01/09 02:42:48;;;;;;;28.20;26.13;;;2.40;3.30;;;;;;4994368;28;20399;-71
2021/01/09 02:45:14;;;;;;;28.50;26.17;;;2.30;3.10;;;;;;4994347;28;20207;-71
2021/01/09 02:47:40;;;;;;;32.83;30.58;;;2.30;3.20;;;;;;4994316;28;20198;-70
2021/01/09 02:50:09;;;;;;;30.27;28.27;;;2.40;3.00;;;;;;4993012;28;20267;-70
2021/01/09 02:52:35;;;;;;;32.03;29.73;;;2.40;2.80;;;;;;4994030;28;20407;-70
2021/01/09 02:55:00;;;;;;;35.73;33.63;;;2.40;2.20;;;;;;4994168;28;20178;-71
2021/01/09 02:57:26;;;;;;;29.60;27.73;;;2.40;1.60;;;;;;4993874;28;20202;-70
2021/01/09 02:59:51;;;;;;;30.10;28.10;;;2.50;1.10;;;;;;4994279;28;20172;-71
2021/01/09 03:02:17;;;;;;;31.37;28.97;;;2.50;1.00;;;;;;4994464;28;20259;-71
2021/01/09 03:04:42;;;;;;;38.30;35.60;;;2.50;1.00;;;;;;4994156;28;20164;-71
2021/01/09 03:07:08;;;;;;;32.90;30.60;;;2.50;1.00;;;;;;4993617;28;20209;-71
2021/01/09 03:09:33;;;;;;;29.37;26.97;;;2.60;1.00;;;;;;4994386;28;20614;-71
2021/01/09 03:11:59;;;;;;;29.30;27.37;;;2.60;1.00;;;;;;4994124;28;20179;-71
2021/01/09 03:14:25;;;;;;;27.00;25.10;;;2.60;1.00;;;;;;4994221;28;20185;-71
2021/01/09 03:16:50;;;;;;;36.23;33.97;;;2.60;1.00;;;;;;4993705;28;20172;-70
2021/01/09 03:19:16;;;;;;;31.60;29.80;;;2.60;1.00;;;;;;4993700;28;20238;-70
2021/01/09 03:21:41;;;;;;;31.57;29.40;;;2.60;2.80;;;;;;4993786;28;20638;-70
2021/01/09 03:24:07;;;;;;;27.10;25.33;;;2.60;1.00;;;;;;4993903;28;20172;-71
2021/01/09 03:26:33;;;;;;;26.63;24.27;;;2.70;1.00;;;;;;4992045;28;20261;-70
2021/01/09 03:28:58;;;;;;;26.23;24.33;;;2.60;1.00;;;;;;4993576;28;20192;-71
2021/01/09 03:31:24;;;;;;;25.33;23.33;;;2.70;1.00;;;;;;4994199;28;20172;-70
2021/01/09 03:33:50;;;;;;;26.30;24.23;;;2.70;1.00;;;;;;4994233;28;20172;-71
2021/01/09 03:36:16;;;;;;;27.08;24.52;;;2.70;1.00;;;;;;4993532;28;20415;-71
2021/01/09 03:38:42;;;;;;;29.63;27.80;;;2.70;1.00;;;;;;4993923;28;20286;-70
2021/01/09 03:41:07;;;;;;;30.27;27.83;;;2.70;1.00;;;;;;4993556;28;20215;-70
2021/01/09 03:43:33;;;;;;;32.00;29.67;;;2.70;1.00;;;;;;4993939;28;20191;-71
2021/01/09 03:45:59;;;;;;;32.33;30.27;;;2.70;1.00;;;;;;4995319;28;20207;-70
2021/01/09 03:48:25;;;;;;;33.73;31.40;;;2.80;1.00;;;;;;4996385;28;20207;-71
2021/01/09 03:50:51;;;;;;;30.98;28.30;;;2.70;1.00;;;;;;4995763;28;20182;-70
2021/01/09 03:53:16;;;;;;;33.77;31.37;;;2.70;1.00;;;;;;4997093;28;20172;-70
2021/01/09 03:55:42;;;;;;;30.57;28.50;;;2.60;1.00;;;;;;4997002;28;20180;-70
2021/01/09 03:58:07;;;;;;;30.10;27.70;;;2.60;1.00;;;;;;4997180;28;20547;-70
2021/01/09 04:00:33;;;;;;;34.47;32.30;;;2.60;1.00;;;;;;4997366;28;20176;-71
2021/01/09 04:02:59;;;;;;;30.37;28.23;;;2.60;1.00;;;;;;4997447;28;20203;-70
2021/01/09 04:05:24;;;;;;;33.67;31.33;;;2.60;1.00;;;;;;4997346;28;20243;-71
2021/01/09 04:07:50;;;;;;;31.20;28.80;;;2.60;1.00;;;;;;4996381;28;20215;-71
2021/01/09 04:10:15;;;;;;;32.47;30.13;;;2.60;1.00;;;;;;4997272;28;20179;-70
2021/01/09 04:12:41;;;;;;;33.50;31.13;;;2.70;1.00;;;;;;4996625;28;20179;-71
2021/01/09 04:15:07;;;;;;;35.57;33.27;;;2.70;1.00;;;;;;4996905;28;20176;-70
2021/01/09 04:17:33;;;;;;;39.37;36.63;;;2.70;1.00;;;;;;4996887;28;20673;-70
2021/01/09 04:19:59;;;;;;;34.58;31.98;;;2.70;1.00;;;;;;4996493;28;20765;-71
2021/01/09 04:22:24;;;;;;;30.60;28.43;;;2.70;1.00;;;;;;4996583;28;20188;-71
2021/01/09 04:24:50;;;;;;;29.80;27.70;;;2.80;1.00;;;;;;4996787;28;20200;-70
2021/01/09 04:27:16;;;;;;;27.03;25.00;;;2.80;1.00;;;;;;4996493;28;20195;-71
2021/01/09 04:29:41;;;;;;;27.13;24.57;;;2.70;1.00;;;;;;4996762;28;20191;-71
2021/01/09 04:32:07;;;;;;;26.00;24.03;;;2.70;1.00;;;;;;4996848;28;20399;-70
2021/01/09 04:34:32;;;;;;;30.50;28.40;;;2.70;1.00;;;;;;4996871;28;20195;-71
2021/01/09 04:36:58;;;;;;;25.53;23.80;;;2.70;1.00;;;;;;4994905;28;20183;-71
2021/01/09 04:39:23;;;;;;;26.60;24.43;;;2.70;1.00;;;;;;4996415;28;20202;-70
2021/01/09 04:41:49;;;;;;;32.10;29.97;;;2.70;1.00;;;;;;4996480;28;20529;-71
2021/01/09 04:44:15;;;;;;;29.73;28.00;;;2.70;1.00;;;;;;4996626;28;20172;-71
2021/01/09 04:46:50;;;;;;;29.77;27.67;;;2.70;1.00;;;;;;4995994;28;20196;-70
2021/01/09 04:49:17;;;;;;;30.98;29.08;;;2.70;1.00;;;;;;4996433;28;20187;-70
2021/01/09 04:51:43;;;;;;;28.40;26.65;;;2.70;1.00;;;;;;4994895;28;20183;-71
2021/01/09 04:54:13;;;;;;;27.00;24.88;;;2.80;1.00;;;;;;4996103;28;20174;-70
2021/01/09 04:56:40;;;;;;;38.03;35.90;;;2.80;1.00;;;;;;4995795;28;20180;-71
2021/01/09 04:59:05;;;;;;;27.63;25.60;;;2.80;1.00;;;;;;4996271;28;20187;-70
2021/01/09 05:01:32;;;;;;;28.87;27.07;;;2.80;1.00;;;;;;4995221;28;20183;-71
2021/01/09 05:03:59;;;;;;;33.55;31.40;;;2.80;1.00;;;;;;4995754;28;20172;-70
2021/01/09 05:06:24;;;;;;;35.22;32.88;;;2.80;1.00;;;;;;4995578;28;20200;-71
2021/01/09 05:08:50;;;;;;;34.60;32.70;;;2.80;1.00;;;;;;4995781;28;20219;-70
2021/01/09 05:11:19;;;;;;;39.50;37.30;;;2.80;1.00;;;;;;4996004;28;20175;-71
2021/01/09 05:13:48;;;;;;;30.88;28.83;;;2.80;1.00;;;;;;4995963;28;20172;-70
2021/01/09 05:16:14;;;;;;;26.85;24.98;;;2.90;1.00;;;;;;4995228;28;20242;-71
2021/01/09 05:18:41;;;;;;;28.30;26.55;;;2.90;1.00;;;;;;4995629;28;20674;-70
2021/01/09 05:21:10;;;;;;;35.17;33.25;;;2.90;1.00;;;;;;4995615;28;20176;-71
2021/01/09 05:23:50;;;;;;;26.70;24.80;;;2.90;1.00;;;;;;4995247;28;20176;-71
2021/01/09 05:26:20;;;;;;;28.58;26.35;;;2.80;1.00;;;;;;4995382;28;20670;-71
2021/01/09 05:28:50;;;;;;;25.75;23.75;;;2.80;1.00;;;;;;4995515;28;20218;-71
2021/01/09 05:31:17;;;;;;;24.13;22.33;;;2.80;1.00;;;;;;4995530;28;20240;-70
2021/01/09 05:33:43;;;;;;;29.05;27.00;;;2.90;1.00;;;;;;4995177;28;20573;-70
2021/01/09 05:36:10;;;;;;;23.40;21.67;;;2.90;1.00;;;;;;4995024;28;20180;-70
2021/01/09 05:38:37;;;;;;;28.83;27.02;;;2.80;1.00;;;;;;4995100;28;20199;-71
2021/01/09 05:41:04;;;;;;;29.13;27.23;;;2.80;1.00;;;;;;4995644;28;20180;-71
2021/01/09 05:43:30;;;;;;;36.20;34.40;;;2.90;1.00;;;;;;4995004;28;20545;-70
2021/01/09 05:45:57;;;;;;;31.60;29.80;;;2.90;1.00;;;;;;4994673;28;20210;-71
2021/01/09 05:48:24;;;;;;;33.35;31.38;;;2.90;1.00;;;;;;4994925;28;20188;-71
2021/01/09 05:50:51;;;;;;;37.10;35.00;;;2.90;1.00;;;;;;4994786;28;20218;-70
2021/01/09 05:53:45;;;;;;;27.48;25.73;;;2.90;1.00;;;;;;4995354;28;20203;-70
2021/01/09 05:56:12;;;;;;;35.17;33.08;;;2.90;1.00;;;;;;4994845;28;20262;-71
2021/01/09 05:58:40;;;;;;;33.50;30.98;;;2.80;1.00;;;;;;4994902;28;20198;-71
2021/01/09 06:01:08;;;;;;;34.60;32.50;;;2.80;1.00;;;;;;4995143;28;20211;-71
2021/01/09 06:03:37;;;;;;;34.08;32.22;;;2.80;1.00;;;;;;4995177;28;20178;-70
2021/01/09 06:06:25;;;;;;;38.63;36.45;;;2.80;1.00;;;;;;4994612;28;20692;-70
2021/01/09 06:08:58;;;;;;;25.42;23.60;;;2.80;1.00;;;;;;4994136;28;20217;-70
2021/01/09 06:11:36;;;;;;;32.75;30.80;;;2.80;1.00;;;;;;4994853;28;20251;-71
2021/01/09 06:14:03;;;;;;;39.38;37.33;;;2.80;1.00;;;;;;4994883;28;20238;-70
2021/01/09 06:16:31;;;;;;;28.42;26.67;;;2.80;1.00;;;;;;4994142;28;20168;-71
2021/01/09 06:18:57;;;;;;;28.88;27.27;;;2.80;1.00;;;;;;4994408;28;20191;-71
2021/01/09 06:21:24;;;;;;;31.73;29.92;;;2.80;1.00;;;;;;4994698;28;20171;-71
2021/01/09 06:23:53;;;;;;;35.22;33.42;;;2.80;1.00;;;;;;4994617;28;20171;-71
2021/01/09 06:26:19;;;;;;;39.50;37.47;;;2.80;1.00;;;;;;4992926;28;20702;-71
2021/01/09 06:28:55;;;;;;;33.80;31.70;;;2.80;1.00;;;;;;4994327;28;20231;-70
2021/01/09 06:31:22;;;;;;;37.90;35.78;;;2.80;1.00;;;;;;4994522;28;20152;-70
2021/01/09 06:33:50;;;;;;;32.15;30.25;;;2.90;1.00;;;;;;4994409;28;20308;-70
2021/01/09 06:36:17;;;;;;;29.45;27.55;;;2.80;1.00;;;;;;4993954;28;20168;-71
2021/01/09 06:38:55;;;;;;;28.88;26.63;;;2.80;1.00;;;;;;4994494;28;20203;-71
2021/01/09 06:41:23;;;;;;;26.52;24.92;;;2.80;1.00;;;;;;4993558;28;20168;-71
2021/01/09 06:43:51;;;;;;;28.95;27.25;;;2.80;1.00;;;;;;4994357;28;20197;-71
2021/01/09 06:46:27;;;;;;;24.52;22.83;;;2.80;1.00;;;;;;4994020;28;20746;-71
2021/01/09 06:48:53;;;;;;;31.67;29.88;;;2.90;1.00;;;;;;4994417;28;20266;-71
2021/01/09 06:51:37;;;;;;;25.95;23.90;;;2.80;1.00;;;;;;4994685;28;20168;-70
2021/01/09 06:54:14;;;;;;;29.75;28.13;;;2.80;1.00;;;;;;4994687;28;20168;-71
2021/01/09 06:56:51;;;;;;;30.00;27.55;;;2.80;1.00;;;;;;4992739;28;20180;-70
2021/01/09 06:59:33;;;;;;;29.58;27.83;;;2.80;1.00;;;;;;4994335;28;20192;-70
2021/01/09 07:02:22;;;;;;;33.10;30.85;;;2.90;1.00;;;;;;4994259;28;20180;-70
2021/01/09 07:04:48;;;;;;;26.52;24.73;;;2.90;1.00;;;;;;4994228;28;20258;-70
2021/01/09 07:07:27;;;;;;;24.67;22.80;;;2.80;1.00;;;;;;4992445;28;20294;-71
2021/01/09 07:09:57;;;;;;;28.55;26.92;;;2.90;1.00;;;;;;4994469;28;20256;-70
2021/01/09 07:12:28;;;;;;;27.65;25.95;;;2.90;1.00;;;;;;4992624;28;20191;-70
2021/01/09 07:14:57;;;;;;;22.23;20.75;;;2.90;1.00;;;;;;4993121;28;20175;-70
2021/01/09 07:17:26;;;;;;;23.33;21.73;;;2.90;1.00;;;;;;4993795;28;20181;-70
2021/01/09 07:19:53;;;;;;;25.23;23.75;;;2.90;1.00;;;;;;4994111;28;20263;-70
2021/01/09 07:22:20;;;;;;;26.27;24.23;;;2.90;1.00;;;;;;4998080;28;20541;-70
2021/01/09 07:24:47;;;;;;;28.00;26.48;;;2.90;1.00;;;;;;4998064;28;20196;-70
2021/01/09 07:27:13;;;;;;;26.48;24.75;;;2.90;1.00;;;;;;4997204;28;20208;-71
2021/01/09 07:29:43;;;;;;;29.67;28.07;;;2.90;1.00;;;;;;4997480;28;20551;-70
2021/01/09 07:32:09;;;;;;;22.67;21.25;;;2.90;1.00;;;;;;4996125;28;20175;-70
2021/01/09 07:34:36;;;;;;;25.83;24.13;;;2.80;1.00;;;;;;4997967;28;20172;-70
2021/01/09 07:37:02;;;;;;;29.88;27.55;;;2.80;1.00;;;;;;4997600;28;20486;-70
2021/01/09 07:39:28;;;;;;;26.77;25.13;;;2.80;1.30;;;;;;4997806;28;20202;-70
2021/01/09 07:41:55;;;;;;;26.13;24.63;;;2.80;1.30;;;;;;4997509;28;20172;-70
2021/01/09 07:44:23;;;;;;;33.42;31.73;;;2.80;1.00;;;;;;4997475;28;20806;-70
2021/01/09 07:46:58;;;;;;;33.00;31.30;;;2.70;1.00;;;;;;4995843;28;20207;-70
2021/01/09 07:49:37;;;;;;;29.50;27.77;;;2.70;1.00;;;;;;4997577;28;20536;-70
2021/01/09 07:52:07;;;;;;;23.77;22.38;;;2.70;2.20;;;;;;4997259;28;20686;-71
2021/01/09 07:54:38;;;;;;;30.30;28.40;;;2.70;6.80;;;;;;4997138;28;20650;-70
2021/01/09 07:57:27;;;;;;;26.70;25.20;;;2.70;2.40;;;;;;4997064;28;20187;-70
2021/01/09 07:59:55;;;;;;;28.80;27.10;;;2.80;2.10;;;;;;4997328;28;20698;-70
2021/01/09 08:02:31;;;;;;;23.33;21.90;;;2.80;1.90;;;;;;4996155;28;20188;-71
2021/01/09 08:05:25;;;;;;;21.60;20.40;;;2.90;1.30;;;;;;4997249;28;20168;-70
2021/01/09 08:07:57;;;;;;;28.02;26.33;;;2.90;1.00;;;;;;4996171;28;20231;-71
2021/01/09 08:10:28;;;;;;;29.77;28.17;;;2.90;1.00;;;;;;5010227;28;20190;-70
2021/01/09 08:13:00;;;;;;;27.05;25.45;;;2.90;1.00;;;;;;5013416;28;20811;-70
2021/01/09 08:15:28;;;;;;;28.35;26.70;;;2.90;1.00;;;;;;5013289;28;20221;-71
2021/01/09 08:17:54;;;;;;;27.10;25.50;;;2.90;1.10;;;;;;5014148;28;20203;-71
2021/01/09 08:20:21;;;;;;;30.73;29.05;;;2.90;1.00;;;;;;5015312;28;20202;-71
2021/01/09 08:22:52;;;;;;;29.50;27.63;;;2.90;1.00;;;;;;5014273;28;20275;-71
2021/01/09 08:25:18;;;;;;;28.35;26.90;;;2.80;1.00;;;;;;5014003;28;20585;-71
2021/01/09 08:27:53;;;;;;;23.90;22.30;;;2.80;1.00;;;;;;5012184;28;20175;-70
2021/01/09 08:30:22;;;;;;;29.23;27.63;;;2.70;1.30;;;;;;5013744;28;20247;-70
2021/01/09 08:32:48;;;;;;;26.33;24.88;;;2.60;1.80;;;;;;5013425;28;20175;-70
2021/01/09 08:35:15;;;;;;;26.92;25.00;;;2.50;2.70;;;;;;5013762;28;20175;-71
2021/01/09 08:37:41;;;;;;;30.77;29.08;;;2.40;3.70;;;;;;5013468;28;20175;-70
2021/01/09 08:40:15;;;;;;;29.13;27.43;;;2.40;5.10;;;;;;5004305;28;20207;-70
2021/01/09 08:42:56;;;;;;;32.53;30.73;;;2.30;6.10;;;;;;5004349;28;20415;-70
2021/01/09 08:45:35;;;;;;;26.30;24.80;;;2.20;8.30;;;;;;5003135;28;20208;-70
2021/01/09 08:48:02;;;;;;;27.73;26.13;;;2.10;10.00;;;;;;5003177;28;20194;-70
2021/01/09 08:50:30;;;;;;;27.55;25.90;;;2.00;11.20;;;;;;5000219;28;20176;-70
2021/01/09 08:53:01;;;;;;;25.27;23.92;;;2.10;11.80;;;;;;5002352;28;20174;-70
2021/01/09 08:55:28;;;;;;;30.15;28.27;;;2.10;12.80;;;;;;5003236;28;20171;-70
2021/01/09 08:57:54;;;;;;;26.10;24.58;;;2.20;13.70;;;;;;5002111;28;20881;-70
2021/01/09 09:00:21;;;;;;;27.03;25.30;;;2.30;14.30;;;;;;5001962;28;20171;-70
2021/01/09 09:02:49;;;;;;;30.15;27.95;;;2.40;13.80;;;;;;5003256;28;20175;-70
2021/01/09 09:05:14;;;;;;;27.10;25.40;;;2.40;13.20;;;;;;5001883;28;20204;-70
2021/01/09 09:07:41;;;;;;;22.83;21.33;;;2.50;12.80;;;;;;5005533;28;20665;-70
2021/01/09 09:10:08;;;;;;;25.80;23.85;;;2.50;12.10;;;;;;5012080;28;20167;-70
2021/01/09 09:12:34;;;;;;;24.98;23.42;;;2.60;11.50;;;;;;5044765;28;20210;-70
2021/01/09 09:15:06;;;;;;;22.40;20.90;;;2.60;11.10;;;;;;5013000;28;20570;-70
2021/01/09 09:17:32;;;;;;;24.45;22.70;;;2.60;10.90;;;;;;5012796;28;20233;-70
2021/01/09 09:19:58;;;;;;;23.40;21.97;;;2.60;14.10;;;;;;5011247;28;20183;-70
2021/01/09 09:22:30;;;;;;;26.23;24.57;;;2.60;10.00;;;;;;5044595;28;20179;-70
2021/01/09 09:24:56;;;;;;;27.25;25.38;;;2.50;10.00;;;;;;5012697;28;20258;-69
2021/01/09 09:27:25;;;;;;;27.13;25.40;;;2.50;10.40;;;;;;5012387;28;20634;-70
2021/01/09 09:30:10;;;;;;;29.33;27.48;;;2.50;10.60;;;;;;5012766;28;20407;-70
2021/01/09 09:32:37;;;;;;;26.77;25.08;;;2.40;11.00;;;;;;5044322;28;20167;-69
2021/01/09 09:35:25;;;;;;;28.80;27.23;;;2.40;11.30;;;;;;5010078;28;20563;-69
2021/01/09 09:37:52;;;;;;;30.40;28.55;;;2.40;11.00;;;;;;5012166;28;20188;-69
2021/01/09 09:40:25;;;;;;;34.42;32.47;;;2.40;11.40;;;;;;5011884;28;20187;-69
2021/01/09 09:42:50;;;;;;;32.35;30.40;;;2.40;11.80;;;;;;5010612;28;20567;-69
2021/01/09 09:45:16;;;;;;;28.53;26.87;;;2.40;12.00;;;;;;5012356;28;20187;-69
2021/01/09 09:47:47;;;;;;;27.92;26.13;;;2.50;12.20;;;;;;5012091;28;20409;-69
2021/01/09 09:50:13;;;;;;;29.83;27.73;;;2.50;12.10;;;;;;5012284;28;20691;-69
2021/01/09 09:52:38;;;;;;;32.80;30.60;;;2.50;11.70;;;;;;5012241;28;20167;-69
2021/01/09 09:55:06;;;;;;;36.27;34.27;;;2.50;11.40;;;;;;5012287;28;20461;-69
2021/01/09 09:57:32;;;;;;;31.38;29.27;;;2.60;11.00;;;;;;5012031;28;20175;-69
2021/01/09 10:00:01;;;;;;;30.10;28.30;;;2.80;9.50;;;;;;5044011;28;20221;-69
2021/01/09 10:02:27;;;;;;;32.50;30.60;;;3.00;6.10;;;;;;5012217;28;20172;-69
2021/01/09 10:04:52;;;;;;;28.63;26.70;;;3.20;1.10;;;;;;5012174;28;20190;-69
2021/01/09 10:07:21;;;;;;;27.53;25.67;;;3.30;1.00;;;;;;5011775;28;20238;-69
2021/01/09 10:09:47;;;;;;;26.75;25.08;;;3.20;1.00;;;;;;5011824;28;20191;-70
2021/01/09 10:12:13;;;;;;;25.30;23.70;;;3.10;1.00;;;;;;5011947;28;20237;-69
2021/01/09 10:14:39;;;;;;;30.83;29.13;;;3.10;1.00;;;;;;5011897;28;20417;-69
2021/01/09 10:17:04;;;;;;;25.33;24.00;;;3.10;1.00;;;;;;5011844;28;20208;-69
2021/01/09 10:19:30;;;;;;;26.27;24.67;;;3.10;1.00;;;;;;5012106;28;20195;-70
2021/01/09 10:21:55;;;;;;;22.90;21.43;;;3.00;1.00;;;;;;5011975;28;20660;-69
2021/01/09 10:24:21;;;;;;;27.17;24.87;;;3.10;1.70;;;;;;5011960;28;20533;-69
2021/01/09 10:26:46;;;;;;;27.10;25.43;;;3.20;1.80;;;;;;5011529;28;20723;-69
2021/01/09 10:29:12;;;;;;;27.20;25.60;;;3.30;2.20;;;;;;5011755;28;20794;-69
2021/01/09 10:31:39;;;;;;;31.00;29.13;;;3.40;1.70;;;;;;5011664;28;20213;-69
2021/01/09 10:34:07;;;;;;;30.38;28.40;;;3.40;1.00;;;;;;5008909;28;20664;-69
2021/01/09 10:36:35;;;;;;;31.30;29.58;;;3.50;1.00;;;;;;5011206;28;20238;-69
2021/01/09 10:39:02;;;;;;;26.02;24.48;;;3.50;2.00;;;;;;5006726;28;20195;-69
2021/01/09 10:41:28;;;;;;;25.52;24.08;;;3.60;2.60;;;;;;4990280;28;20541;-69
2021/01/09 10:43:53;;;;;;;19.97;18.63;;;3.60;6.30;;;;;;4991843;28;20179;-69
2021/01/09 10:46:24;;;;;;;21.93;20.50;;;3.60;2.30;;;;;;4990266;28;20191;-69
2021/01/09 10:48:50;;;;;;;21.75;20.52;;;3.70;3.10;;;;;;4991947;28;20184;-71
2021/01/09 10:51:18;;;;;;;23.95;22.45;;;3.80;3.50;;;;;;4992034;28;20222;-69
2021/01/09 10:53:43;;;;;;;21.83;20.52;;;3.80;5.10;;;;;;4998771;28;20174;-69
2021/01/09 10:56:09;;;;;;;19.77;18.40;;;3.80;6.30;;;;;;5012488;28;20179;-69
2021/01/09 10:58:35;;;;;;;20.93;19.50;;;3.80;6.90;;;;;;5015406;28;20432;-69
2021/01/09 11:01:01;;;;;;;39.10;35.28;;;3.80;6.70;;;;;;5015471;28;20179;-69
2021/01/09 11:03:27;;;;;;;22.17;20.87;;;3.80;6.30;;;;;;5015382;28;20187;-69
2021/01/09 11:05:52;;;;;;;19.03;17.80;;;3.70;10.70;;;;;;5046943;28;20203;-68
2021/01/09 11:08:18;;;;;;;20.27;18.90;;;3.70;7.50;;;;;;5015064;28;20269;-69
2021/01/09 11:10:44;;;;;;;19.83;18.60;;;3.70;7.20;;;;;;5014857;28;20179;-69
2021/01/09 11:13:10;;;;;;;20.67;19.37;;;3.70;6.60;;;;;;5015077;28;20190;-69
2021/01/09 11:15:35;;;;;;;21.03;19.70;;;3.70;8.70;;;;;;5015148;28;20179;-70
2021/01/09 11:18:01;;;;;;;23.37;21.97;;;3.80;9.50;;;;;;5015153;28;20492;-69
2021/01/09 11:20:27;;;;;;;23.50;22.10;;;3.80;9.40;;;;;;5015251;28;20205;-69
2021/01/09 11:22:52;;;;;;;24.40;23.00;;;3.80;9.10;;;;;;5015114;28;20180;-68
2021/01/09 11:25:18;;;;;;;27.53;26.03;;;3.80;8.80;;;;;;5014436;28;20170;-69
2021/01/09 11:27:44;;;;;;;21.20;20.00;;;3.90;9.90;;;;;;5014753;28;20258;-70
2021/01/09 11:30:10;;;;;;;20.47;18.97;;;3.90;10.30;;;;;;5013291;28;20700;-70
2021/01/09 11:32:35;;;;;;;21.02;19.58;;;3.90;9.90;;;;;;5014846;28;20194;-70
2021/01/09 11:35:02;;;;;;;17.67;16.07;;;3.90;9.50;;;;;;5015011;28;20164;-68
2021/01/09 11:37:27;;;;;;;19.67;18.38;;;4.00;10.20;;;;;;5046477;28;20179;-70
2021/01/09 11:39:54;;;;;;;18.97;17.67;;;4.00;10.30;;;;;;5014853;28;20175;-69
2021/01/09 11:42:23;;;;;;;22.08;20.58;;;4.00;10.50;;;;;;5014670;28;20596;-70
2021/01/09 11:44:48;;;;;;;20.08;18.67;;;4.10;11.90;;;;;;5014829;28;20191;-70
2021/01/09 11:47:14;;;;;;;23.03;21.80;;;4.10;8.90;;;;;;5014399;28;20203;-70
2021/01/09 11:49:40;;;;;;;22.02;20.42;;;4.10;10.80;;;;;;5014763;28;20552;-70
2021/01/09 11:52:06;;;;;;;22.05;20.95;;;4.20;12.10;;;;;;5014359;28;20187;-70
2021/01/09 11:54:32;;;;;;;24.70;23.33;;;4.30;13.60;;;;;;5046865;28;20175;-70
2021/01/09 11:56:57;;;;;;;24.33;22.93;;;4.30;12.10;;;;;;5014668;28;20175;-70
2021/01/09 11:59:23;;;;;;;23.87;22.67;;;4.30;12.90;;;;;;5014636;28;20191;-71
2021/01/09 12:01:49;;;;;;;23.30;21.90;;;4.30;13.30;;;;;;5014847;28;20645;-70
2021/01/09 12:04:14;;;;;;;24.50;23.23;;;4.30;13.60;;;;;;5014670;28;20183;-70
2021/01/09 12:06:40;;;;;;;20.80;19.60;;;4.20;15.40;;;;;;5013990;28;20199;-70
2021/01/09 12:09:05;;;;;;;23.60;22.40;;;4.20;16.70;;;;;;5014411;28;20679;-70
2021/01/09 12:11:34;;;;;;;18.93;17.80;;;4.20;16.70;;;;;;5014672;28;20540;-70
2021/01/09 12:14:00;;;;;;;20.45;19.40;;;4.20;17.30;;;;;;5014507;28;20167;-70
2021/01/09 12:16:30;;;;;;;21.38;20.23;;;4.20;18.30;;;;;;5014250;28;20175;-70
2021/01/09 12:18:56;;;;;;;25.58;24.05;;;4.10;19.50;;;;;;5014306;28;20285;-70
2021/01/09 12:21:22;;;;;;;31.00;29.00;;;4.10;20.70;;;;;;5014290;28;20313;-70
2021/01/09 12:23:48;;;;;;;23.20;21.97;;;4.00;20.70;;;;;;5046189;28;20425;-71
2021/01/09 12:26:18;;;;;;;25.85;24.65;;;4.00;23.20;;;;;;5012387;28;20533;-72
2021/01/09 12:28:43;;;;;;;20.25;18.98;;;4.10;24.10;;;;;;5014031;28;20334;-71
2021/01/09 12:31:09;;;;;;;23.17;21.50;;;4.10;25.70;;;;;;5014166;28;20544;-71
2021/01/09 12:33:34;;;;;;;19.43;18.17;;;4.10;25.40;;;;;;5014238;28;20267;-71
2021/01/09 12:36:00;;;;;;;24.87;23.37;;;4.10;24.60;;;;;;5014056;28;20264;-71
2021/01/09 12:38:25;;;;;;;23.20;21.67;;;4.20;24.70;;;;;;5012431;28;20249;-71
2021/01/09 12:40:51;;;;;;;25.17;23.67;;;4.20;24.00;;;;;;5014165;28;20178;-71
2021/01/09 12:43:17;;;;;;;29.67;28.20;;;4.20;23.60;;;;;;5013962;28;20171;-71
2021/01/09 12:45:43;;;;;;;23.80;22.30;;;4.20;25.20;;;;;;5013820;28;20203;-71
2021/01/09 12:48:08;;;;;;;24.60;23.20;;;4.20;24.60;;;;;;5013933;28;20283;-71